Time,TemperatureF,DewpointF,PressureIn,WindDirection,WindDirectionDegrees,WindSpeedMPH,WindSpeedGustMPH,Humidity,HourlyPrecipIn,Conditions,Clouds,dailyrainin,SolarRadiationWatts/m^2,SoftwareType,DateUTC
2013-12-17 12:22:00,42.6,16.9,30.18,NNW,338,10.3,10.3,35,0.00,,---,0.00,0.00,VWS V14.01,2013-12-17 18:22:00,
2013-12-17 12:26:00,42.8,17.7,30.18,NNW,338,13.2,13.2,36,0.00,,---,0.00,0.00,VWS V14.01,2013-12-17 18:26:00,
2013-12-17 12:28:00,42.8,17.7,30.18,NNW,338,13.2,13.2,36,0.00,,---,0.00,0.00,VWS V14.01,2013-12-17 18:28:00,
2013-12-17 12:33:00,42.8,16.4,30.18,NNW,338,13.0,13.0,34,0.00,,---,0.00,0.00,VWS V14.01,2013-12-17 18:33:00,
2013-12-17 12:38:00,43.0,15.2,1.89,NW,315,8.7,12.8,32,0.00,,---,0.00,0.00,VWS V14.01,2013-12-17 18:38:00,
2013-12-17 12:43:00,43.2,16.0,92.60,NNE,22,13.0,13.0,33,0.00,,---,0.00,0.00,VWS V14.01,2013-12-17 18:43:00,
2013-12-17 12:48:00,43.3,16.2,24.57,NNW,338,10.5,11.0,33,0.00,,---,0.00,0.00,VWS V14.01,2013-12-17 18:48:00,
2013-12-17 12:53:00,43.3,16.2,92.60,WNW,292,6.9,6.9,33,0.00,,---,0.00,0.00,VWS V14.01,2013-12-17 18:53:00,
2013-12-17 12:58:00,43.3,16.2,30.21,NNE,22,14.8,14.8,33,0.00,,---,0.00,0.00,VWS V14.01,2013-12-17 18:58:00,
2013-12-17 13:03:00,43.5,14.9,30.21,NNW,338,7.8,7.8,31,0.00,,---,0.00,0.00,VWS V14.01,2013-12-17 19:03:00,
2013-12-17 13:08:00,44.1,16.8,30.21,NW,315,9.8,9.8,33,0.00,,---,99.99,0.00,VWS V14.01,2013-12-17 19:08:00,
2013-12-17 13:13:00,44.2,17.0,30.21,NNW,338,10.3,10.3,33,0.00,,---,0.00,0.00,VWS V14.01,2013-12-17 19:13:00,
2013-12-17 13:18:00,44.2,14.0,30.21,NNW,338,10.7,10.7,29,0.00,,---,0.00,0.00,VWS V14.01,2013-12-17 19:18:00,
2013-12-17 13:23:00,44.1,13.9,30.21,North,0,14.5,15.9,29,0.00,,---,0.00,0.00,VWS V14.01,2013-12-17 19:23:00,
2013-12-17 13:28:00,44.2,14.0,30.21,NNW,338,10.3,10.3,29,0.00,,---,0.00,0.00,VWS V14.01,2013-12-17 19:28:00,
2013-12-17 13:33:00,44.2,14.0,30.21,NNW,338,16.3,16.3,29,0.00,,---,0.00,0.00,VWS V14.01,2013-12-17 19:33:00,
2013-12-17 13:38:00,44.1,13.9,30.21,NNW,338,13.2,14.5,29,0.00,,---,0.00,0.00,VWS V14.01,2013-12-17 19:38:00,
2013-12-17 13:43:00,44.1,13.9,30.21,NNE,22,15.4,15.4,29,0.00,,---,0.00,0.00,VWS V14.01,2013-12-17 19:43:00,
2013-12-17 13:48:00,43.9,13.7,30.21,North,0,14.3,14.3,29,0.00,,---,0.00,0.00,VWS V14.01,2013-12-17 19:48:00,
2013-12-17 13:53:00,44.1,13.9,30.21,NW,315,6.3,6.3,29,0.00,,---,0.00,0.00,VWS V14.01,2013-12-17 19:53:00,
2013-12-17 13:58:00,44.1,8.6,30.18,NW,315,13.0,13.0,23,0.00,,---,0.00,0.00,VWS V14.01,2013-12-17 19:58:00,
2013-12-17 14:03:00,44.1,8.6,30.18,NNW,338,11.0,13.0,23,0.00,,---,0.00,0.00,VWS V14.01,2013-12-17 20:03:00,
2013-12-17 14:08:00,44.1,8.6,30.18,NW,315,13.2,13.2,23,0.00,,---,0.00,0.00,VWS V14.01,2013-12-17 20:08:00,
2013-12-17 14:13:00,43.7,8.3,30.18,NW,315,10.5,10.5,23,0.00,,---,0.00,0.00,VWS V14.01,2013-12-17 20:13:00,
2013-12-17 14:18:00,43.7,8.3,30.18,NNW,338,10.3,11.2,23,0.00,,---,0.00,0.00,VWS V14.01,2013-12-17 20:18:00,
2013-12-17 14:23:00,43.7,5.3,30.18,North,0,15.4,15.4,20,0.00,,---,0.00,0.00,VWS V14.01,2013-12-17 20:23:00,
2013-12-17 14:29:00,43.7,8.3,30.18,NW,315,10.5,12.3,23,0.00,,---,0.00,0.00,VWS V14.01,2013-12-17 20:29:00,
2013-12-17 14:34:00,43.7,8.3,30.18,NNW,338,13.2,13.2,23,0.00,,---,0.00,0.00,VWS V14.01,2013-12-17 20:34:00,
2013-12-17 14:40:00,43.7,8.3,30.18,NNW,338,9.2,9.2,23,0.00,,---,99.99,0.00,VWS V14.01,2013-12-17 20:40:00,
2013-12-17 14:45:00,43.9,8.5,30.18,NNW,338,8.1,10.1,23,0.00,,---,99.99,0.00,VWS V14.01,2013-12-17 20:45:00,
2013-12-17 14:50:00,43.7,8.3,30.18,NNW,338,13.2,13.2,23,0.00,,---,99.99,0.00,VWS V14.01,2013-12-17 20:50:00,
2013-12-17 14:55:00,43.5,5.1,30.21,NW,315,8.1,10.5,20,0.00,,---,99.99,0.00,VWS V14.01,2013-12-17 20:55:00,
2013-12-17 15:00:00,43.5,5.1,30.21,NW,315,11.4,11.4,20,0.00,,---,99.99,0.00,VWS V14.01,2013-12-17 21:00:00,
2013-12-17 15:05:00,43.3,5.0,30.18,NNW,338,10.3,10.3,20,0.00,,---,99.99,0.00,VWS V14.01,2013-12-17 21:05:00,
2013-12-17 15:10:00,43.3,5.0,30.18,NNW,338,10.7,12.5,20,0.00,,---,99.99,0.00,VWS V14.01,2013-12-17 21:10:00,
2013-12-17 15:15:00,42.8,4.5,30.18,NNW,338,12.8,13.0,20,0.00,,---,99.99,0.00,VWS V14.01,2013-12-17 21:15:00,
2013-12-17 15:20:00,42.8,4.5,30.18,NNW,338,9.4,9.4,20,0.00,,---,99.99,0.00,VWS V14.01,2013-12-17 21:20:00,
2013-12-17 15:25:00,42.6,5.4,30.18,WNW,292,10.5,10.7,21,0.00,,---,99.99,0.00,VWS V14.01,2013-12-17 21:25:00,
2013-12-17 15:30:00,42.4,5.3,30.21,NNW,338,9.0,9.8,21,0.00,,---,99.99,0.00,VWS V14.01,2013-12-17 21:30:00,
2013-12-17 15:36:00,42.4,5.3,30.21,NW,315,9.8,9.8,21,0.00,,---,99.99,0.00,VWS V14.01,2013-12-17 21:36:00,
2013-12-17 15:41:00,42.1,5.0,30.21,WNW,292,7.6,7.8,21,0.00,,---,99.99,0.00,VWS V14.01,2013-12-17 21:41:00,
2013-12-17 15:46:00,42.1,5.0,30.21,WNW,292,5.8,7.2,21,0.00,,---,99.99,0.00,VWS V14.01,2013-12-17 21:46:00,
2013-12-17 15:51:00,41.9,4.8,30.21,WNW,292,11.4,11.4,21,0.00,,---,99.99,0.00,VWS V14.01,2013-12-17 21:51:00,
2013-12-17 15:56:00,41.5,4.5,30.21,NW,315,8.1,10.3,21,0.00,,---,99.99,0.00,VWS V14.01,2013-12-17 21:56:00,
2013-12-17 16:01:00,41.5,4.5,30.21,NW,315,7.6,8.1,21,0.00,,---,99.99,0.00,VWS V14.01,2013-12-17 22:01:00,
2013-12-17 16:06:00,41.0,4.1,30.21,WNW,292,7.4,7.4,21,0.00,,---,99.99,0.00,VWS V14.01,2013-12-17 22:06:00,
2013-12-17 16:11:00,41.0,4.1,30.21,NNW,338,5.6,5.6,21,0.00,,---,99.99,0.00,VWS V14.01,2013-12-17 22:11:00,
2013-12-17 16:18:00,40.5,3.6,30.21,NW,315,6.0,6.0,21,0.00,,---,99.99,0.00,VWS V14.01,2013-12-17 22:18:00,
2013-12-17 16:23:00,40.3,3.5,30.21,NW,315,9.4,9.8,21,0.00,,---,99.99,0.00,VWS V14.01,2013-12-17 22:23:00,
2013-12-17 16:28:00,39.7,3.0,30.21,NW,315,6.5,6.5,21,0.00,,---,99.99,0.00,VWS V14.01,2013-12-17 22:28:00,
2013-12-17 16:33:00,39.6,2.9,30.21,NNW,338,6.0,6.0,21,0.00,,---,99.99,0.00,VWS V14.01,2013-12-17 22:33:00,
2013-12-17 16:38:00,39.0,2.4,30.21,WNW,292,6.3,7.6,21,0.00,,---,99.99,0.00,VWS V14.01,2013-12-17 22:38:00,
2013-12-17 16:43:00,38.3,4.7,30.18,WNW,292,4.0,4.0,24,0.00,,---,99.99,0.00,VWS V14.01,2013-12-17 22:43:00,
2013-12-17 16:48:00,37.4,3.9,30.18,WNW,292,0.0,0.0,24,0.00,,---,99.99,0.00,VWS V14.01,2013-12-17 22:48:00,
2013-12-17 16:53:00,36.9,3.5,30.18,WNW,292,5.6,5.6,24,0.00,,---,99.99,0.00,VWS V14.01,2013-12-17 22:53:00,
2013-12-17 16:58:00,36.9,3.5,30.18,WNW,292,6.0,6.0,24,0.00,,---,99.99,0.00,VWS V14.01,2013-12-17 22:58:00,
2013-12-17 17:03:00,36.1,2.8,30.18,WNW,292,5.4,5.4,24,0.00,,---,99.99,0.00,VWS V14.01,2013-12-17 23:03:00,
2013-12-17 17:08:00,35.6,4.9,30.15,WNW,292,0.0,0.0,27,0.00,,---,99.99,0.00,VWS V14.01,2013-12-17 23:08:00,
2013-12-17 17:13:00,35.1,4.5,30.15,WNW,292,0.0,0.0,27,0.00,,---,99.99,0.00,VWS V14.01,2013-12-17 23:13:00,
2013-12-17 17:18:00,34.5,4.0,30.15,WNW,292,0.0,0.0,27,0.00,,---,99.99,0.00,VWS V14.01,2013-12-17 23:18:00,
2013-12-17 17:23:00,34.3,6.1,30.15,WNW,292,0.0,0.0,30,0.00,,---,99.99,0.00,VWS V14.01,2013-12-17 23:23:00,
2013-12-17 17:28:00,34.0,5.8,30.15,WNW,292,0.0,2.7,30,0.00,,---,99.99,0.00,VWS V14.01,2013-12-17 23:28:00,
2013-12-17 17:33:00,34.0,5.8,30.15,WNW,292,0.0,0.0,30,0.00,,---,99.99,0.00,VWS V14.01,2013-12-17 23:33:00,
2013-12-17 17:38:00,34.0,5.8,30.15,WNW,292,4.3,4.3,30,0.00,,---,99.99,0.00,VWS V14.01,2013-12-17 23:38:00,
2013-12-17 17:43:00,33.4,5.3,30.15,West,270,0.0,0.0,30,0.00,,---,99.99,0.00,VWS V14.01,2013-12-17 23:43:00,
2013-12-17 17:48:00,33.4,5.3,30.15,West,270,4.3,4.3,30,0.00,,---,99.99,0.00,VWS V14.01,2013-12-17 23:48:00,
2013-12-17 17:54:00,33.3,5.9,30.15,West,270,3.6,3.6,31,0.00,,---,99.99,0.00,VWS V14.01,2013-12-17 23:54:00,
2013-12-17 17:59:00,33.3,5.9,30.15,West,270,0.0,0.0,31,0.00,,---,99.99,0.00,VWS V14.01,2013-12-17 23:59:00,
2013-12-17 18:04:00,32.9,5.6,30.15,West,270,3.6,3.6,31,0.00,,---,99.99,0.00,VWS V14.01,2013-12-18 00:04:00,
2013-12-17 18:09:00,32.9,5.6,30.15,West,270,3.6,3.6,31,0.00,,---,99.99,0.00,VWS V14.01,2013-12-18 00:09:00,
2013-12-17 18:14:00,32.5,5.3,30.15,West,270,2.2,2.7,31,0.00,,---,99.99,0.00,VWS V14.01,2013-12-18 00:14:00,
2013-12-17 18:19:00,32.5,5.3,30.15,West,270,0.0,0.0,31,0.00,,---,99.99,0.00,VWS V14.01,2013-12-18 00:19:00,
2013-12-17 18:24:00,32.2,5.0,30.15,WNW,292,0.0,0.0,31,0.00,,---,99.99,0.00,VWS V14.01,2013-12-18 00:24:00,
2013-12-17 18:29:00,32.0,4.8,30.15,WNW,292,0.0,0.0,31,0.00,,---,99.99,0.00,VWS V14.01,2013-12-18 00:29:00,
2013-12-17 18:34:00,32.0,4.8,30.15,West,270,0.0,0.0,31,0.00,,---,99.99,0.00,VWS V14.01,2013-12-18 00:34:00,
2013-12-17 18:39:00,32.0,4.8,30.15,West,270,0.0,0.0,31,0.00,,---,99.99,0.00,VWS V14.01,2013-12-18 00:39:00,
2013-12-17 18:44:00,32.0,4.8,30.15,West,270,2.9,2.9,31,0.00,,---,99.99,0.00,VWS V14.01,2013-12-18 00:44:00,
2013-12-17 18:49:00,31.8,4.6,30.15,West,270,0.0,0.0,31,0.00,,---,99.99,0.00,VWS V14.01,2013-12-18 00:49:00,
2013-12-17 18:55:00,31.5,4.3,30.15,West,270,0.0,0.0,31,0.00,,---,99.99,0.00,VWS V14.01,2013-12-18 00:55:00,
2013-12-17 19:00:00,31.5,4.3,30.15,West,270,0.0,0.0,31,0.00,,---,99.99,0.00,VWS V14.01,2013-12-18 01:00:00,
2013-12-17 19:05:00,31.3,4.2,30.15,West,270,0.0,0.0,31,0.00,,---,99.99,0.00,VWS V14.01,2013-12-18 01:05:00,
2013-12-17 19:10:00,31.3,4.9,30.12,West,270,0.0,0.0,32,0.00,,---,99.99,0.00,VWS V14.01,2013-12-18 01:10:00,
2013-12-17 19:15:00,31.8,5.3,30.12,West,270,0.0,0.0,32,0.00,,---,99.99,0.00,VWS V14.01,2013-12-18 01:15:00,
2013-12-17 19:20:00,31.6,4.5,30.12,West,270,0.0,0.0,31,0.00,,---,99.99,0.00,VWS V14.01,2013-12-18 01:20:00,
2013-12-17 19:25:00,31.6,4.5,30.12,WNW,292,0.0,0.0,31,0.00,,---,99.99,0.00,VWS V14.01,2013-12-18 01:25:00,
2013-12-17 19:31:00,31.6,4.5,30.12,WNW,292,0.0,0.0,31,0.00,,---,99.99,0.00,VWS V14.01,2013-12-18 01:31:00,
2013-12-17 19:36:00,30.6,4.2,30.12,WNW,292,0.0,0.0,32,0.00,,---,99.99,0.00,VWS V14.01,2013-12-18 01:36:00,
2013-12-17 19:41:00,30.4,4.1,30.15,WNW,292,0.0,0.0,32,0.00,,---,99.99,0.00,VWS V14.01,2013-12-18 01:41:00,
2013-12-17 19:46:00,30.4,4.1,30.15,WNW,292,0.0,0.0,32,0.00,,---,99.99,0.00,VWS V14.01,2013-12-18 01:46:00,
2013-12-17 19:51:00,30.2,4.6,30.15,West,270,0.0,0.0,33,0.00,,---,99.99,0.00,VWS V14.01,2013-12-18 01:51:00,
2013-12-17 19:56:00,30.0,3.8,30.15,WSW,248,0.0,0.0,32,0.00,,---,99.99,0.00,VWS V14.01,2013-12-18 01:56:00,
2013-12-17 20:01:00,29.7,3.4,30.15,WSW,248,0.0,0.0,32,0.00,,---,99.99,0.00,VWS V14.01,2013-12-18 02:01:00,
2013-12-17 20:06:00,29.5,3.9,30.12,SSW,202,0.0,2.0,33,0.00,,---,99.99,0.00,VWS V14.01,2013-12-18 02:06:00,
2013-12-17 20:11:00,29.3,3.8,30.12,SSW,202,0.0,0.0,33,0.00,,---,99.99,0.00,VWS V14.01,2013-12-18 02:11:00,
2013-12-17 20:16:00,29.3,3.8,30.12,SSW,202,0.0,0.0,33,0.00,,---,99.99,0.00,VWS V14.01,2013-12-18 02:16:00,
2013-12-17 20:21:00,29.3,3.8,30.12,SSW,202,0.0,0.0,33,0.00,,---,99.99,0.00,VWS V14.01,2013-12-18 02:21:00,
2013-12-17 20:26:00,29.8,4.9,30.12,SSW,202,0.0,0.0,34,0.00,,---,99.99,0.00,VWS V14.01,2013-12-18 02:26:00,
2013-12-17 20:31:00,30.0,5.1,30.12,SSW,202,0.0,0.0,34,0.00,,---,99.99,0.00,VWS V14.01,2013-12-18 02:31:00,
2013-12-17 20:36:00,30.6,5.5,30.12,SSW,202,0.0,0.0,34,0.00,,---,99.99,0.00,VWS V14.01,2013-12-18 02:36:00,
2013-12-17 20:41:00,30.7,5.1,30.12,SSW,202,0.0,0.0,33,0.00,,---,99.99,0.00,VWS V14.01,2013-12-18 02:41:00,
2013-12-17 20:46:00,30.6,4.9,30.12,SSW,202,0.0,0.0,33,0.00,,---,99.99,0.00,VWS V14.01,2013-12-18 02:46:00,
2013-12-17 20:52:00,0.0,0.0,30.12,SSW,202,0.0,0.0,0,0.00,,---,99.99,0.00,VWS V14.01,2013-12-18 02:52:00,